﻿<?xml version="1.0" encoding="UTF-8" standalone="no" ?>
<gpx xmlns="http://www.topografix.com/GPX/1/1" creator="CompeGPS" version="1.1" xmlns:xsi="http://www.w3.org/2001/XMLSchema-instance" xsi:schemaLocation="http://www.topografix.com/GPX/1/1 http://www.topografix.com/GPX/1/1/gpx.xsd http://www.garmin.com/xmlschemas/GpxExtensions/v3 http://www.garmin.com/xmlschemas/GpxExtensionsv3.xsd http://www.garmin.com/xmlschemas/TrackPointExtension/v1 http://www.garmin.com/xmlschemas/TrackPointExtensionv1.xsd" xmlns:gpxtpx="http://www.garmin.com/xmlschemas/TrackPointExtension/v1">
  <metadata>
    <link href="http://www.compegps.com">
      <text>CompeGPS TEAM, SL</text>
    </link>
    <time>2019-10-29T19:26:43Z</time>
    <bounds maxlat="44.987700" maxlon="6.584039" minlat="44.962642" minlon="6.558447"/>
  </metadata>
  <trk>
    <name>Rando_342</name>
    <trkseg>
      <trkpt lat="44.968183" lon="6.583960">
        <ele>2180.0</ele>
        <time>2019-09-23T07:36:49Z</time>
      </trkpt>
      <trkpt lat="44.968108" lon="6.583890">
        <ele>2180.3</ele>
        <time>2019-09-23T07:37:22Z</time>
      </trkpt>
      <trkpt lat="44.967907" lon="6.583722">
        <ele>2178.8</ele>
        <time>2019-09-23T07:37:39Z</time>
      </trkpt>
      <trkpt lat="44.967742" lon="6.583642">
        <ele>2180.1</ele>
        <time>2019-09-23T07:37:56Z</time>
      </trkpt>
      <trkpt lat="44.967575" lon="6.583663">
        <ele>2179.8</ele>
        <time>2019-09-23T07:38:16Z</time>
      </trkpt>
      <trkpt lat="44.967472" lon="6.583650">
        <ele>2179.5</ele>
        <time>2019-09-23T07:38:24Z</time>
      </trkpt>
      <trkpt lat="44.967335" lon="6.583615">
        <ele>2178.1</ele>
        <time>2019-09-23T07:38:35Z</time>
      </trkpt>
      <trkpt lat="44.967190" lon="6.583523">
        <ele>2176.8</ele>
        <time>2019-09-23T07:38:47Z</time>
      </trkpt>
      <trkpt lat="44.967115" lon="6.583465">
        <ele>2177.3</ele>
        <time>2019-09-23T07:38:54Z</time>
      </trkpt>
      <trkpt lat="44.966973" lon="6.583382">
        <ele>2176.8</ele>
        <time>2019-09-23T07:39:06Z</time>
      </trkpt>
      <trkpt lat="44.966817" lon="6.583305">
        <ele>2176.6</ele>
        <time>2019-09-23T07:39:19Z</time>
      </trkpt>
      <trkpt lat="44.966740" lon="6.583232">
        <ele>2176.3</ele>
        <time>2019-09-23T07:39:26Z</time>
      </trkpt>
      <trkpt lat="44.966562" lon="6.583042">
        <ele>2174.3</ele>
        <time>2019-09-23T07:39:43Z</time>
      </trkpt>
      <trkpt lat="44.966427" lon="6.582905">
        <ele>2173.1</ele>
        <time>2019-09-23T07:39:55Z</time>
      </trkpt>
      <trkpt lat="44.966367" lon="6.582827">
        <ele>2172.3</ele>
        <time>2019-09-23T07:40:01Z</time>
      </trkpt>
      <trkpt lat="44.966217" lon="6.582712">
        <ele>2171.5</ele>
        <time>2019-09-23T07:40:25Z</time>
      </trkpt>
      <trkpt lat="44.966140" lon="6.582632">
        <ele>2172.0</ele>
        <time>2019-09-23T07:40:34Z</time>
      </trkpt>
      <trkpt lat="44.966015" lon="6.582490">
        <ele>2171.8</ele>
        <time>2019-09-23T07:40:47Z</time>
      </trkpt>
      <trkpt lat="44.965872" lon="6.582362">
        <ele>2171.5</ele>
        <time>2019-09-23T07:41:01Z</time>
      </trkpt>
      <trkpt lat="44.965793" lon="6.582335">
        <ele>2171.8</ele>
        <time>2019-09-23T07:41:08Z</time>
      </trkpt>
      <trkpt lat="44.965635" lon="6.582240">
        <ele>2173.3</ele>
        <time>2019-09-23T07:41:22Z</time>
      </trkpt>
      <trkpt lat="44.965493" lon="6.582132">
        <ele>2174.5</ele>
        <time>2019-09-23T07:41:36Z</time>
      </trkpt>
      <trkpt lat="44.965353" lon="6.582010">
        <ele>2175.5</ele>
        <time>2019-09-23T07:41:50Z</time>
      </trkpt>
      <trkpt lat="44.965287" lon="6.581942">
        <ele>2175.8</ele>
        <time>2019-09-23T07:41:57Z</time>
      </trkpt>
      <trkpt lat="44.965163" lon="6.581768">
        <ele>2175.6</ele>
        <time>2019-09-23T07:42:13Z</time>
      </trkpt>
      <trkpt lat="44.965105" lon="6.581683">
        <ele>2175.6</ele>
        <time>2019-09-23T07:42:21Z</time>
      </trkpt>
      <trkpt lat="44.964972" lon="6.581540">
        <ele>2177.1</ele>
        <time>2019-09-23T07:42:36Z</time>
      </trkpt>
      <trkpt lat="44.964887" lon="6.581497">
        <ele>2178.1</ele>
        <time>2019-09-23T07:42:44Z</time>
      </trkpt>
      <trkpt lat="44.964728" lon="6.581428">
        <ele>2181.1</ele>
        <time>2019-09-23T07:42:59Z</time>
      </trkpt>
      <trkpt lat="44.964655" lon="6.581382">
        <ele>2182.1</ele>
        <time>2019-09-23T07:43:06Z</time>
      </trkpt>
      <trkpt lat="44.964503" lon="6.581248">
        <ele>2184.1</ele>
        <time>2019-09-23T07:43:22Z</time>
      </trkpt>
      <trkpt lat="44.964433" lon="6.581170">
        <ele>2184.6</ele>
        <time>2019-09-23T07:43:30Z</time>
      </trkpt>
      <trkpt lat="44.964302" lon="6.581030">
        <ele>2187.0</ele>
        <time>2019-09-23T07:43:44Z</time>
      </trkpt>
      <trkpt lat="44.964148" lon="6.580940">
        <ele>2188.8</ele>
        <time>2019-09-23T07:43:57Z</time>
      </trkpt>
      <trkpt lat="44.964075" lon="6.580868">
        <ele>2188.8</ele>
        <time>2019-09-23T07:44:05Z</time>
      </trkpt>
      <trkpt lat="44.963985" lon="6.580680">
        <ele>2189.8</ele>
        <time>2019-09-23T07:44:30Z</time>
      </trkpt>
      <trkpt lat="44.963992" lon="6.580565">
        <ele>2188.8</ele>
        <time>2019-09-23T07:44:37Z</time>
      </trkpt>
      <trkpt lat="44.964030" lon="6.580433">
        <ele>2189.1</ele>
        <time>2019-09-23T07:44:46Z</time>
      </trkpt>
      <trkpt lat="44.964093" lon="6.580233">
        <ele>2189.8</ele>
        <time>2019-09-23T07:45:00Z</time>
      </trkpt>
      <trkpt lat="44.964107" lon="6.580122">
        <ele>2189.1</ele>
        <time>2019-09-23T07:45:06Z</time>
      </trkpt>
      <trkpt lat="44.964155" lon="6.579900">
        <ele>2190.0</ele>
        <time>2019-09-23T07:45:21Z</time>
      </trkpt>
      <trkpt lat="44.964215" lon="6.579690">
        <ele>2192.6</ele>
        <time>2019-09-23T07:45:37Z</time>
      </trkpt>
      <trkpt lat="44.964235" lon="6.579455">
        <ele>2192.3</ele>
        <time>2019-09-23T07:45:52Z</time>
      </trkpt>
      <trkpt lat="44.964197" lon="6.579215">
        <ele>2193.5</ele>
        <time>2019-09-23T07:46:07Z</time>
      </trkpt>
      <trkpt lat="44.964163" lon="6.579105">
        <ele>2194.1</ele>
        <time>2019-09-23T07:46:15Z</time>
      </trkpt>
      <trkpt lat="44.964052" lon="6.578938">
        <ele>2197.1</ele>
        <time>2019-09-23T07:46:29Z</time>
      </trkpt>
      <trkpt lat="44.963985" lon="6.578872">
        <ele>2200.1</ele>
        <time>2019-09-23T07:46:36Z</time>
      </trkpt>
      <trkpt lat="44.963848" lon="6.578747">
        <ele>2200.6</ele>
        <time>2019-09-23T07:46:50Z</time>
      </trkpt>
      <trkpt lat="44.963775" lon="6.578673">
        <ele>2202.5</ele>
        <time>2019-09-23T07:46:58Z</time>
      </trkpt>
      <trkpt lat="44.963665" lon="6.578498">
        <ele>2203.1</ele>
        <time>2019-09-23T07:47:12Z</time>
      </trkpt>
      <trkpt lat="44.963563" lon="6.578298">
        <ele>2203.6</ele>
        <time>2019-09-23T07:47:28Z</time>
      </trkpt>
      <trkpt lat="44.963475" lon="6.578103">
        <ele>2204.6</ele>
        <time>2019-09-23T07:47:44Z</time>
      </trkpt>
      <trkpt lat="44.963373" lon="6.577887">
        <ele>2206.6</ele>
        <time>2019-09-23T07:48:02Z</time>
      </trkpt>
      <trkpt lat="44.963218" lon="6.577608">
        <ele>2208.8</ele>
        <time>2019-09-23T07:48:25Z</time>
      </trkpt>
      <trkpt lat="44.963140" lon="6.577422">
        <ele>2208.6</ele>
        <time>2019-09-23T07:48:59Z</time>
      </trkpt>
      <trkpt lat="44.963140" lon="6.577278">
        <ele>2208.8</ele>
        <time>2019-09-23T07:49:08Z</time>
      </trkpt>
      <trkpt lat="44.963170" lon="6.577072">
        <ele>2209.0</ele>
        <time>2019-09-23T07:49:28Z</time>
      </trkpt>
      <trkpt lat="44.963158" lon="6.576960">
        <ele>2209.6</ele>
        <time>2019-09-23T07:49:35Z</time>
      </trkpt>
      <trkpt lat="44.963083" lon="6.576745">
        <ele>2210.8</ele>
        <time>2019-09-23T07:49:50Z</time>
      </trkpt>
      <trkpt lat="44.963025" lon="6.576518">
        <ele>2212.8</ele>
        <time>2019-09-23T07:50:07Z</time>
      </trkpt>
      <trkpt lat="44.963003" lon="6.576383">
        <ele>2214.0</ele>
        <time>2019-09-23T07:50:16Z</time>
      </trkpt>
      <trkpt lat="44.962970" lon="6.576157">
        <ele>2215.6</ele>
        <time>2019-09-23T07:50:31Z</time>
      </trkpt>
      <trkpt lat="44.962892" lon="6.575937">
        <ele>2218.1</ele>
        <time>2019-09-23T07:50:47Z</time>
      </trkpt>
      <trkpt lat="44.962767" lon="6.575787">
        <ele>2221.5</ele>
        <time>2019-09-23T07:51:02Z</time>
      </trkpt>
      <trkpt lat="44.962708" lon="6.575695">
        <ele>2223.0</ele>
        <time>2019-09-23T07:51:14Z</time>
      </trkpt>
      <trkpt lat="44.962688" lon="6.575560">
        <ele>2223.1</ele>
        <time>2019-09-23T07:51:23Z</time>
      </trkpt>
      <trkpt lat="44.962782" lon="6.575412">
        <ele>2221.8</ele>
        <time>2019-09-23T07:51:44Z</time>
      </trkpt>
      <trkpt lat="44.962857" lon="6.575348">
        <ele>2220.8</ele>
        <time>2019-09-23T07:51:51Z</time>
      </trkpt>
      <trkpt lat="44.962985" lon="6.575202">
        <ele>2221.1</ele>
        <time>2019-09-23T07:52:07Z</time>
      </trkpt>
      <trkpt lat="44.963102" lon="6.575017">
        <ele>2224.6</ele>
        <time>2019-09-23T07:52:38Z</time>
      </trkpt>
      <trkpt lat="44.963235" lon="6.574885">
        <ele>2225.8</ele>
        <time>2019-09-23T07:52:53Z</time>
      </trkpt>
      <trkpt lat="44.963370" lon="6.574737">
        <ele>2226.3</ele>
        <time>2019-09-23T07:53:09Z</time>
      </trkpt>
      <trkpt lat="44.963502" lon="6.574607">
        <ele>2227.6</ele>
        <time>2019-09-23T07:53:24Z</time>
      </trkpt>
      <trkpt lat="44.963633" lon="6.574458">
        <ele>2229.1</ele>
        <time>2019-09-23T07:53:40Z</time>
      </trkpt>
      <trkpt lat="44.963768" lon="6.574308">
        <ele>2230.6</ele>
        <time>2019-09-23T07:53:56Z</time>
      </trkpt>
      <trkpt lat="44.963898" lon="6.574159">
        <ele>2232.0</ele>
        <time>2019-09-23T07:54:11Z</time>
      </trkpt>
      <trkpt lat="44.964042" lon="6.574017">
        <ele>2233.8</ele>
        <time>2019-09-23T07:54:27Z</time>
      </trkpt>
      <trkpt lat="44.964200" lon="6.573910">
        <ele>2235.6</ele>
        <time>2019-09-23T07:54:42Z</time>
      </trkpt>
      <trkpt lat="44.964418" lon="6.573773">
        <ele>2236.5</ele>
        <time>2019-09-23T07:55:02Z</time>
      </trkpt>
      <trkpt lat="44.964578" lon="6.573697">
        <ele>2237.3</ele>
        <time>2019-09-23T07:55:16Z</time>
      </trkpt>
      <trkpt lat="44.964750" lon="6.573715">
        <ele>2236.6</ele>
        <time>2019-09-23T07:55:30Z</time>
      </trkpt>
      <trkpt lat="44.964912" lon="6.573773">
        <ele>2237.3</ele>
        <time>2019-09-23T07:55:44Z</time>
      </trkpt>
      <trkpt lat="44.965082" lon="6.573768">
        <ele>2237.8</ele>
        <time>2019-09-23T07:55:58Z</time>
      </trkpt>
      <trkpt lat="44.965250" lon="6.573727">
        <ele>2239.1</ele>
        <time>2019-09-23T07:56:13Z</time>
      </trkpt>
      <trkpt lat="44.965337" lon="6.573720">
        <ele>2238.8</ele>
        <time>2019-09-23T07:56:20Z</time>
      </trkpt>
      <trkpt lat="44.965508" lon="6.573695">
        <ele>2239.8</ele>
        <time>2019-09-23T07:56:35Z</time>
      </trkpt>
      <trkpt lat="44.965675" lon="6.573648">
        <ele>2240.1</ele>
        <time>2019-09-23T07:56:49Z</time>
      </trkpt>
      <trkpt lat="44.965837" lon="6.573552">
        <ele>2240.6</ele>
        <time>2019-09-23T07:57:03Z</time>
      </trkpt>
      <trkpt lat="44.965907" lon="6.573502">
        <ele>2240.5</ele>
        <time>2019-09-23T07:57:09Z</time>
      </trkpt>
      <trkpt lat="44.966023" lon="6.573355">
        <ele>2241.3</ele>
        <time>2019-09-23T07:57:21Z</time>
      </trkpt>
      <trkpt lat="44.966082" lon="6.573287">
        <ele>2241.3</ele>
        <time>2019-09-23T07:57:27Z</time>
      </trkpt>
      <trkpt lat="44.966193" lon="6.573128">
        <ele>2240.5</ele>
        <time>2019-09-23T07:57:39Z</time>
      </trkpt>
      <trkpt lat="44.966308" lon="6.572942">
        <ele>2239.1</ele>
        <time>2019-09-23T07:57:53Z</time>
      </trkpt>
      <trkpt lat="44.966398" lon="6.572752">
        <ele>2238.1</ele>
        <time>2019-09-23T07:58:41Z</time>
      </trkpt>
      <trkpt lat="44.966463" lon="6.572540">
        <ele>2236.6</ele>
        <time>2019-09-23T07:58:54Z</time>
      </trkpt>
      <trkpt lat="44.966548" lon="6.572332">
        <ele>2235.3</ele>
        <time>2019-09-23T07:59:08Z</time>
      </trkpt>
      <trkpt lat="44.966672" lon="6.572168">
        <ele>2234.8</ele>
        <time>2019-09-23T07:59:22Z</time>
      </trkpt>
      <trkpt lat="44.966802" lon="6.572000">
        <ele>2235.0</ele>
        <time>2019-09-23T07:59:36Z</time>
      </trkpt>
      <trkpt lat="44.966918" lon="6.571822">
        <ele>2235.8</ele>
        <time>2019-09-23T07:59:50Z</time>
      </trkpt>
      <trkpt lat="44.966983" lon="6.571717">
        <ele>2236.8</ele>
        <time>2019-09-23T07:59:58Z</time>
      </trkpt>
      <trkpt lat="44.967080" lon="6.571553">
        <ele>2238.6</ele>
        <time>2019-09-23T08:00:12Z</time>
      </trkpt>
      <trkpt lat="44.967130" lon="6.571452">
        <ele>2239.0</ele>
        <time>2019-09-23T08:00:20Z</time>
      </trkpt>
      <trkpt lat="44.967217" lon="6.571255">
        <ele>2239.3</ele>
        <time>2019-09-23T08:00:34Z</time>
      </trkpt>
      <trkpt lat="44.967252" lon="6.571147">
        <ele>2239.8</ele>
        <time>2019-09-23T08:00:41Z</time>
      </trkpt>
      <trkpt lat="44.967300" lon="6.570917">
        <ele>2240.8</ele>
        <time>2019-09-23T08:00:56Z</time>
      </trkpt>
      <trkpt lat="44.967333" lon="6.570788">
        <ele>2241.1</ele>
        <time>2019-09-23T08:01:05Z</time>
      </trkpt>
      <trkpt lat="44.967450" lon="6.570490">
        <ele>2241.8</ele>
        <time>2019-09-23T08:01:26Z</time>
      </trkpt>
      <trkpt lat="44.967523" lon="6.570280">
        <ele>2243.0</ele>
        <time>2019-09-23T08:01:42Z</time>
      </trkpt>
      <trkpt lat="44.967600" lon="6.570053">
        <ele>2244.6</ele>
        <time>2019-09-23T08:01:58Z</time>
      </trkpt>
      <trkpt lat="44.967643" lon="6.569933">
        <ele>2245.3</ele>
        <time>2019-09-23T08:02:07Z</time>
      </trkpt>
      <trkpt lat="44.967730" lon="6.569620">
        <ele>2247.8</ele>
        <time>2019-09-23T08:02:29Z</time>
      </trkpt>
      <trkpt lat="44.967757" lon="6.569513">
        <ele>2248.6</ele>
        <time>2019-09-23T08:02:37Z</time>
      </trkpt>
      <trkpt lat="44.967793" lon="6.569263">
        <ele>2250.5</ele>
        <time>2019-09-23T08:03:11Z</time>
      </trkpt>
      <trkpt lat="44.967920" lon="6.568960">
        <ele>2252.8</ele>
        <time>2019-09-23T08:03:34Z</time>
      </trkpt>
      <trkpt lat="44.967968" lon="6.568863">
        <ele>2253.6</ele>
        <time>2019-09-23T08:03:42Z</time>
      </trkpt>
      <trkpt lat="44.968003" lon="6.568743">
        <ele>2254.3</ele>
        <time>2019-09-23T08:08:02Z</time>
      </trkpt>
      <trkpt lat="44.968205" lon="6.568572">
        <ele>2255.6</ele>
        <time>2019-09-23T08:08:23Z</time>
      </trkpt>
      <trkpt lat="44.968353" lon="6.568462">
        <ele>2257.1</ele>
        <time>2019-09-23T08:08:39Z</time>
      </trkpt>
      <trkpt lat="44.968497" lon="6.568340">
        <ele>2258.6</ele>
        <time>2019-09-23T08:08:55Z</time>
      </trkpt>
      <trkpt lat="44.968570" lon="6.568245">
        <ele>2259.8</ele>
        <time>2019-09-23T08:09:04Z</time>
      </trkpt>
      <trkpt lat="44.968650" lon="6.568043">
        <ele>2261.6</ele>
        <time>2019-09-23T08:09:19Z</time>
      </trkpt>
      <trkpt lat="44.968702" lon="6.567942">
        <ele>2262.3</ele>
        <time>2019-09-23T08:09:27Z</time>
      </trkpt>
      <trkpt lat="44.968830" lon="6.567797">
        <ele>2264.6</ele>
        <time>2019-09-23T08:09:43Z</time>
      </trkpt>
      <trkpt lat="44.968958" lon="6.567638">
        <ele>2267.1</ele>
        <time>2019-09-23T08:09:59Z</time>
      </trkpt>
      <trkpt lat="44.969023" lon="6.567535">
        <ele>2268.0</ele>
        <time>2019-09-23T08:10:08Z</time>
      </trkpt>
      <trkpt lat="44.969122" lon="6.567360">
        <ele>2269.1</ele>
        <time>2019-09-23T08:10:23Z</time>
      </trkpt>
      <trkpt lat="44.969257" lon="6.567212">
        <ele>2270.0</ele>
        <time>2019-09-23T08:10:40Z</time>
      </trkpt>
      <trkpt lat="44.969383" lon="6.567058">
        <ele>2272.0</ele>
        <time>2019-09-23T08:10:56Z</time>
      </trkpt>
      <trkpt lat="44.969513" lon="6.566917">
        <ele>2273.8</ele>
        <time>2019-09-23T08:11:12Z</time>
      </trkpt>
      <trkpt lat="44.969662" lon="6.566787">
        <ele>2275.1</ele>
        <time>2019-09-23T08:11:28Z</time>
      </trkpt>
      <trkpt lat="44.969738" lon="6.566728">
        <ele>2276.0</ele>
        <time>2019-09-23T08:11:36Z</time>
      </trkpt>
      <trkpt lat="44.969903" lon="6.566648">
        <ele>2277.3</ele>
        <time>2019-09-23T08:12:00Z</time>
      </trkpt>
      <trkpt lat="44.970077" lon="6.566590">
        <ele>2279.6</ele>
        <time>2019-09-23T08:12:17Z</time>
      </trkpt>
      <trkpt lat="44.970317" lon="6.566498">
        <ele>2281.5</ele>
        <time>2019-09-23T08:12:40Z</time>
      </trkpt>
      <trkpt lat="44.970485" lon="6.566447">
        <ele>2282.3</ele>
        <time>2019-09-23T08:12:56Z</time>
      </trkpt>
      <trkpt lat="44.970570" lon="6.566423">
        <ele>2282.8</ele>
        <time>2019-09-23T08:13:04Z</time>
      </trkpt>
      <trkpt lat="44.970735" lon="6.566368">
        <ele>2284.6</ele>
        <time>2019-09-23T08:13:20Z</time>
      </trkpt>
      <trkpt lat="44.970895" lon="6.566293">
        <ele>2286.1</ele>
        <time>2019-09-23T08:13:35Z</time>
      </trkpt>
      <trkpt lat="44.971053" lon="6.566213">
        <ele>2287.5</ele>
        <time>2019-09-23T08:13:50Z</time>
      </trkpt>
      <trkpt lat="44.971210" lon="6.566130">
        <ele>2289.3</ele>
        <time>2019-09-23T08:14:06Z</time>
      </trkpt>
      <trkpt lat="44.971377" lon="6.566185">
        <ele>2289.8</ele>
        <time>2019-09-23T08:14:23Z</time>
      </trkpt>
      <trkpt lat="44.971518" lon="6.566337">
        <ele>2289.8</ele>
        <time>2019-09-23T08:14:39Z</time>
      </trkpt>
      <trkpt lat="44.971648" lon="6.566483">
        <ele>2290.3</ele>
        <time>2019-09-23T08:14:55Z</time>
      </trkpt>
      <trkpt lat="44.971730" lon="6.566520">
        <ele>2290.1</ele>
        <time>2019-09-23T08:15:03Z</time>
      </trkpt>
      <trkpt lat="44.971878" lon="6.566432">
        <ele>2292.0</ele>
        <time>2019-09-23T08:15:16Z</time>
      </trkpt>
      <trkpt lat="44.971995" lon="6.566277">
        <ele>2293.3</ele>
        <time>2019-09-23T08:15:29Z</time>
      </trkpt>
      <trkpt lat="44.972117" lon="6.566110">
        <ele>2294.3</ele>
        <time>2019-09-23T08:15:44Z</time>
      </trkpt>
      <trkpt lat="44.972180" lon="6.566042">
        <ele>2294.8</ele>
        <time>2019-09-23T08:15:51Z</time>
      </trkpt>
      <trkpt lat="44.972322" lon="6.565893">
        <ele>2296.0</ele>
        <time>2019-09-23T08:16:07Z</time>
      </trkpt>
      <trkpt lat="44.972382" lon="6.565817">
        <ele>2296.8</ele>
        <time>2019-09-23T08:16:14Z</time>
      </trkpt>
      <trkpt lat="44.972493" lon="6.565645">
        <ele>2297.6</ele>
        <time>2019-09-23T08:16:28Z</time>
      </trkpt>
      <trkpt lat="44.972552" lon="6.565550">
        <ele>2298.0</ele>
        <time>2019-09-23T08:16:36Z</time>
      </trkpt>
      <trkpt lat="44.972665" lon="6.565357">
        <ele>2299.0</ele>
        <time>2019-09-23T08:16:52Z</time>
      </trkpt>
      <trkpt lat="44.972775" lon="6.565172">
        <ele>2299.8</ele>
        <time>2019-09-23T08:17:08Z</time>
      </trkpt>
      <trkpt lat="44.972820" lon="6.565062">
        <ele>2300.6</ele>
        <time>2019-09-23T08:17:43Z</time>
      </trkpt>
      <trkpt lat="44.973017" lon="6.564832">
        <ele>2301.6</ele>
        <time>2019-09-23T08:18:08Z</time>
      </trkpt>
      <trkpt lat="44.973092" lon="6.564763">
        <ele>2302.6</ele>
        <time>2019-09-23T08:18:16Z</time>
      </trkpt>
      <trkpt lat="44.973240" lon="6.564662">
        <ele>2306.0</ele>
        <time>2019-09-23T08:18:31Z</time>
      </trkpt>
      <trkpt lat="44.973403" lon="6.564600">
        <ele>2308.6</ele>
        <time>2019-09-23T08:18:47Z</time>
      </trkpt>
      <trkpt lat="44.973553" lon="6.564502">
        <ele>2310.0</ele>
        <time>2019-09-23T08:19:03Z</time>
      </trkpt>
      <trkpt lat="44.973620" lon="6.564427">
        <ele>2310.3</ele>
        <time>2019-09-23T08:19:11Z</time>
      </trkpt>
      <trkpt lat="44.973738" lon="6.564262">
        <ele>2312.1</ele>
        <time>2019-09-23T08:19:26Z</time>
      </trkpt>
      <trkpt lat="44.973882" lon="6.564135">
        <ele>2314.6</ele>
        <time>2019-09-23T08:19:42Z</time>
      </trkpt>
      <trkpt lat="44.973958" lon="6.564057">
        <ele>2315.6</ele>
        <time>2019-09-23T08:19:51Z</time>
      </trkpt>
      <trkpt lat="44.974078" lon="6.563913">
        <ele>2317.5</ele>
        <time>2019-09-23T08:20:06Z</time>
      </trkpt>
      <trkpt lat="44.974182" lon="6.563737">
        <ele>2318.1</ele>
        <time>2019-09-23T08:20:21Z</time>
      </trkpt>
      <trkpt lat="44.974290" lon="6.563553">
        <ele>2319.3</ele>
        <time>2019-09-23T08:20:37Z</time>
      </trkpt>
      <trkpt lat="44.974383" lon="6.563337">
        <ele>2320.1</ele>
        <time>2019-09-23T08:20:55Z</time>
      </trkpt>
      <trkpt lat="44.974450" lon="6.563135">
        <ele>2321.1</ele>
        <time>2019-09-23T08:21:10Z</time>
      </trkpt>
      <trkpt lat="44.974537" lon="6.562928">
        <ele>2322.1</ele>
        <time>2019-09-23T08:21:26Z</time>
      </trkpt>
      <trkpt lat="44.974625" lon="6.562720">
        <ele>2323.6</ele>
        <time>2019-09-23T08:21:42Z</time>
      </trkpt>
      <trkpt lat="44.974710" lon="6.562508">
        <ele>2324.3</ele>
        <time>2019-09-23T08:21:58Z</time>
      </trkpt>
      <trkpt lat="44.974840" lon="6.562357">
        <ele>2323.5</ele>
        <time>2019-09-23T08:22:13Z</time>
      </trkpt>
      <trkpt lat="44.974920" lon="6.562300">
        <ele>2324.8</ele>
        <time>2019-09-23T08:22:22Z</time>
      </trkpt>
      <trkpt lat="44.975070" lon="6.562203">
        <ele>2327.6</ele>
        <time>2019-09-23T08:22:38Z</time>
      </trkpt>
      <trkpt lat="44.975142" lon="6.562153">
        <ele>2328.8</ele>
        <time>2019-09-23T08:22:45Z</time>
      </trkpt>
      <trkpt lat="44.975308" lon="6.562068">
        <ele>2329.8</ele>
        <time>2019-09-23T08:23:01Z</time>
      </trkpt>
      <trkpt lat="44.975465" lon="6.562007">
        <ele>2330.8</ele>
        <time>2019-09-23T08:23:16Z</time>
      </trkpt>
      <trkpt lat="44.975632" lon="6.562013">
        <ele>2330.8</ele>
        <time>2019-09-23T08:23:31Z</time>
      </trkpt>
      <trkpt lat="44.975752" lon="6.561837">
        <ele>2331.6</ele>
        <time>2019-09-23T08:23:47Z</time>
      </trkpt>
      <trkpt lat="44.975843" lon="6.561610">
        <ele>2333.1</ele>
        <time>2019-09-23T08:24:04Z</time>
      </trkpt>
      <trkpt lat="44.976005" lon="6.561363">
        <ele>2334.5</ele>
        <time>2019-09-23T08:24:50Z</time>
      </trkpt>
      <trkpt lat="44.976088" lon="6.561137">
        <ele>2336.0</ele>
        <time>2019-09-23T08:25:06Z</time>
      </trkpt>
      <trkpt lat="44.976188" lon="6.560953">
        <ele>2337.5</ele>
        <time>2019-09-23T08:25:22Z</time>
      </trkpt>
      <trkpt lat="44.976313" lon="6.560782">
        <ele>2339.3</ele>
        <time>2019-09-23T08:25:47Z</time>
      </trkpt>
      <trkpt lat="44.976437" lon="6.560610">
        <ele>2341.1</ele>
        <time>2019-09-23T08:26:03Z</time>
      </trkpt>
      <trkpt lat="44.976510" lon="6.560517">
        <ele>2341.6</ele>
        <time>2019-09-23T08:26:12Z</time>
      </trkpt>
      <trkpt lat="44.976632" lon="6.560370">
        <ele>2343.1</ele>
        <time>2019-09-23T08:26:27Z</time>
      </trkpt>
      <trkpt lat="44.976713" lon="6.560317">
        <ele>2343.8</ele>
        <time>2019-09-23T08:26:36Z</time>
      </trkpt>
      <trkpt lat="44.976878" lon="6.560348">
        <ele>2345.3</ele>
        <time>2019-09-23T08:27:07Z</time>
      </trkpt>
      <trkpt lat="44.976975" lon="6.560377">
        <ele>2345.6</ele>
        <time>2019-09-23T08:27:16Z</time>
      </trkpt>
      <trkpt lat="44.977113" lon="6.560482">
        <ele>2346.3</ele>
        <time>2019-09-23T08:27:31Z</time>
      </trkpt>
      <trkpt lat="44.977260" lon="6.560612">
        <ele>2347.3</ele>
        <time>2019-09-23T08:27:48Z</time>
      </trkpt>
      <trkpt lat="44.977337" lon="6.560658">
        <ele>2348.3</ele>
        <time>2019-09-23T08:27:57Z</time>
      </trkpt>
      <trkpt lat="44.977487" lon="6.560768">
        <ele>2349.0</ele>
        <time>2019-09-23T08:28:14Z</time>
      </trkpt>
      <trkpt lat="44.977570" lon="6.560835">
        <ele>2349.5</ele>
        <time>2019-09-23T08:28:23Z</time>
      </trkpt>
      <trkpt lat="44.977792" lon="6.560975">
        <ele>2349.8</ele>
        <time>2019-09-23T08:28:46Z</time>
      </trkpt>
      <trkpt lat="44.977955" lon="6.561032">
        <ele>2350.5</ele>
        <time>2019-09-23T08:29:02Z</time>
      </trkpt>
      <trkpt lat="44.978122" lon="6.561087">
        <ele>2351.1</ele>
        <time>2019-09-23T08:29:18Z</time>
      </trkpt>
      <trkpt lat="44.978200" lon="6.561072">
        <ele>2351.5</ele>
        <time>2019-09-23T08:29:25Z</time>
      </trkpt>
      <trkpt lat="44.978373" lon="6.561052">
        <ele>2354.5</ele>
        <time>2019-09-23T08:29:41Z</time>
      </trkpt>
      <trkpt lat="44.978537" lon="6.561082">
        <ele>2355.8</ele>
        <time>2019-09-23T08:29:57Z</time>
      </trkpt>
      <trkpt lat="44.978700" lon="6.561060">
        <ele>2357.6</ele>
        <time>2019-09-23T08:30:12Z</time>
      </trkpt>
      <trkpt lat="44.978875" lon="6.561010">
        <ele>2360.3</ele>
        <time>2019-09-23T08:30:29Z</time>
      </trkpt>
      <trkpt lat="44.979122" lon="6.560957">
        <ele>2363.1</ele>
        <time>2019-09-23T08:30:54Z</time>
      </trkpt>
      <trkpt lat="44.979283" lon="6.560922">
        <ele>2365.0</ele>
        <time>2019-09-23T08:31:10Z</time>
      </trkpt>
      <trkpt lat="44.979360" lon="6.560900">
        <ele>2365.8</ele>
        <time>2019-09-23T08:31:17Z</time>
      </trkpt>
      <trkpt lat="44.979530" lon="6.560840">
        <ele>2368.1</ele>
        <time>2019-09-23T08:31:34Z</time>
      </trkpt>
      <trkpt lat="44.979687" lon="6.560732">
        <ele>2370.6</ele>
        <time>2019-09-23T08:31:51Z</time>
      </trkpt>
      <trkpt lat="44.979822" lon="6.560593">
        <ele>2372.1</ele>
        <time>2019-09-23T08:32:07Z</time>
      </trkpt>
      <trkpt lat="44.979950" lon="6.560415">
        <ele>2373.6</ele>
        <time>2019-09-23T08:32:42Z</time>
      </trkpt>
      <trkpt lat="44.980105" lon="6.560357">
        <ele>2374.5</ele>
        <time>2019-09-23T08:32:58Z</time>
      </trkpt>
      <trkpt lat="44.980272" lon="6.560327">
        <ele>2374.6</ele>
        <time>2019-09-23T08:33:14Z</time>
      </trkpt>
      <trkpt lat="44.980353" lon="6.560293">
        <ele>2375.3</ele>
        <time>2019-09-23T08:33:22Z</time>
      </trkpt>
      <trkpt lat="44.980498" lon="6.560175">
        <ele>2376.3</ele>
        <time>2019-09-23T08:33:38Z</time>
      </trkpt>
      <trkpt lat="44.980568" lon="6.560092">
        <ele>2377.3</ele>
        <time>2019-09-23T08:33:47Z</time>
      </trkpt>
      <trkpt lat="44.980690" lon="6.559943">
        <ele>2379.1</ele>
        <time>2019-09-23T08:34:03Z</time>
      </trkpt>
      <trkpt lat="44.980760" lon="6.559885">
        <ele>2380.1</ele>
        <time>2019-09-23T08:34:11Z</time>
      </trkpt>
      <trkpt lat="44.980922" lon="6.559783">
        <ele>2381.8</ele>
        <time>2019-09-23T08:34:29Z</time>
      </trkpt>
      <trkpt lat="44.981060" lon="6.559652">
        <ele>2384.1</ele>
        <time>2019-09-23T08:34:45Z</time>
      </trkpt>
      <trkpt lat="44.981145" lon="6.559592">
        <ele>2385.3</ele>
        <time>2019-09-23T08:34:55Z</time>
      </trkpt>
      <trkpt lat="44.981282" lon="6.559497">
        <ele>2387.1</ele>
        <time>2019-09-23T08:35:11Z</time>
      </trkpt>
      <trkpt lat="44.981445" lon="6.559428">
        <ele>2388.1</ele>
        <time>2019-09-23T08:35:27Z</time>
      </trkpt>
      <trkpt lat="44.981620" lon="6.559398">
        <ele>2389.1</ele>
        <time>2019-09-23T08:35:45Z</time>
      </trkpt>
      <trkpt lat="44.981798" lon="6.559333">
        <ele>2391.0</ele>
        <time>2019-09-23T08:36:03Z</time>
      </trkpt>
      <trkpt lat="44.982040" lon="6.559237">
        <ele>2393.8</ele>
        <time>2019-09-23T08:36:28Z</time>
      </trkpt>
      <trkpt lat="44.982195" lon="6.559138">
        <ele>2396.0</ele>
        <time>2019-09-23T08:36:46Z</time>
      </trkpt>
      <trkpt lat="44.982358" lon="6.559063">
        <ele>2397.5</ele>
        <time>2019-09-23T08:37:04Z</time>
      </trkpt>
      <trkpt lat="44.982523" lon="6.559005">
        <ele>2399.3</ele>
        <time>2019-09-23T08:37:21Z</time>
      </trkpt>
      <trkpt lat="44.982692" lon="6.558965">
        <ele>2401.1</ele>
        <time>2019-09-23T08:37:37Z</time>
      </trkpt>
      <trkpt lat="44.982858" lon="6.558948">
        <ele>2402.5</ele>
        <time>2019-09-23T08:37:53Z</time>
      </trkpt>
      <trkpt lat="44.982942" lon="6.558945">
        <ele>2402.6</ele>
        <time>2019-09-23T08:38:01Z</time>
      </trkpt>
      <trkpt lat="44.983033" lon="6.558960">
        <ele>2402.8</ele>
        <time>2019-09-23T08:38:10Z</time>
      </trkpt>
      <trkpt lat="44.983273" lon="6.558995">
        <ele>2403.8</ele>
        <time>2019-09-23T08:38:33Z</time>
      </trkpt>
      <trkpt lat="44.983433" lon="6.559070">
        <ele>2403.8</ele>
        <time>2019-09-23T08:38:47Z</time>
      </trkpt>
      <trkpt lat="44.983595" lon="6.559083">
        <ele>2404.8</ele>
        <time>2019-09-23T08:39:01Z</time>
      </trkpt>
      <trkpt lat="44.983765" lon="6.559090">
        <ele>2406.1</ele>
        <time>2019-09-23T08:39:16Z</time>
      </trkpt>
      <trkpt lat="44.983928" lon="6.559137">
        <ele>2407.6</ele>
        <time>2019-09-23T08:39:31Z</time>
      </trkpt>
      <trkpt lat="44.984098" lon="6.559210">
        <ele>2408.6</ele>
        <time>2019-09-23T08:39:47Z</time>
      </trkpt>
      <trkpt lat="44.984258" lon="6.559252">
        <ele>2408.8</ele>
        <time>2019-09-23T08:40:01Z</time>
      </trkpt>
      <trkpt lat="44.984432" lon="6.559218">
        <ele>2410.3</ele>
        <time>2019-09-23T08:40:17Z</time>
      </trkpt>
      <trkpt lat="44.984528" lon="6.559235">
        <ele>2412.1</ele>
        <time>2019-09-23T08:40:43Z</time>
      </trkpt>
      <trkpt lat="44.984660" lon="6.559347">
        <ele>2412.6</ele>
        <time>2019-09-23T08:40:58Z</time>
      </trkpt>
      <trkpt lat="44.984818" lon="6.559458">
        <ele>2413.0</ele>
        <time>2019-09-23T08:41:14Z</time>
      </trkpt>
      <trkpt lat="44.984980" lon="6.559525">
        <ele>2413.5</ele>
        <time>2019-09-23T08:41:30Z</time>
      </trkpt>
      <trkpt lat="44.985145" lon="6.559503">
        <ele>2414.3</ele>
        <time>2019-09-23T08:41:45Z</time>
      </trkpt>
      <trkpt lat="44.985303" lon="6.559478">
        <ele>2415.5</ele>
        <time>2019-09-23T08:41:59Z</time>
      </trkpt>
      <trkpt lat="44.985465" lon="6.559432">
        <ele>2416.8</ele>
        <time>2019-09-23T08:42:12Z</time>
      </trkpt>
      <trkpt lat="44.985625" lon="6.559370">
        <ele>2417.6</ele>
        <time>2019-09-23T08:42:26Z</time>
      </trkpt>
      <trkpt lat="44.985745" lon="6.559200">
        <ele>2419.6</ele>
        <time>2019-09-23T08:42:41Z</time>
      </trkpt>
      <trkpt lat="44.985817" lon="6.559120">
        <ele>2420.1</ele>
        <time>2019-09-23T08:42:49Z</time>
      </trkpt>
      <trkpt lat="44.985962" lon="6.559033">
        <ele>2419.1</ele>
        <time>2019-09-23T08:43:03Z</time>
      </trkpt>
      <trkpt lat="44.986120" lon="6.558928">
        <ele>2419.1</ele>
        <time>2019-09-23T08:43:20Z</time>
      </trkpt>
      <trkpt lat="44.986210" lon="6.558908">
        <ele>2415.5</ele>
        <time>2019-09-23T08:46:35Z</time>
      </trkpt>
      <trkpt lat="44.986447" lon="6.558985">
        <ele>2413.6</ele>
        <time>2019-09-23T08:46:58Z</time>
      </trkpt>
      <trkpt lat="44.986615" lon="6.559057">
        <ele>2414.0</ele>
        <time>2019-09-23T08:47:11Z</time>
      </trkpt>
      <trkpt lat="44.986763" lon="6.559153">
        <ele>2415.6</ele>
        <time>2019-09-23T08:47:24Z</time>
      </trkpt>
      <trkpt lat="44.986832" lon="6.559207">
        <ele>2417.1</ele>
        <time>2019-09-23T08:47:31Z</time>
      </trkpt>
      <trkpt lat="44.986922" lon="6.559243">
        <ele>2418.5</ele>
        <time>2019-09-23T08:47:40Z</time>
      </trkpt>
      <trkpt lat="44.987085" lon="6.559270">
        <ele>2422.1</ele>
        <time>2019-09-23T08:47:55Z</time>
      </trkpt>
      <trkpt lat="44.987243" lon="6.559193">
        <ele>2423.3</ele>
        <time>2019-09-23T08:48:09Z</time>
      </trkpt>
      <trkpt lat="44.987295" lon="6.558965">
        <ele>2425.8</ele>
        <time>2019-09-23T08:48:31Z</time>
      </trkpt>
      <trkpt lat="44.987332" lon="6.558847">
        <ele>2424.8</ele>
        <time>2019-09-23T08:48:43Z</time>
      </trkpt>
      <trkpt lat="44.987400" lon="6.558712">
        <ele>2423.3</ele>
        <time>2019-09-23T08:48:53Z</time>
      </trkpt>
      <trkpt lat="44.987530" lon="6.558587">
        <ele>2417.6</ele>
        <time>2019-09-23T08:49:07Z</time>
      </trkpt>
      <trkpt lat="44.987677" lon="6.558447">
        <ele>2415.3</ele>
        <time>2019-09-23T08:49:25Z</time>
      </trkpt>
      <trkpt lat="44.987700" lon="6.558663">
        <ele>2428.0</ele>
        <time>2019-09-23T13:13:48Z</time>
      </trkpt>
      <trkpt lat="44.987587" lon="6.558822">
        <ele>2425.3</ele>
        <time>2019-09-23T13:14:05Z</time>
      </trkpt>
      <trkpt lat="44.987468" lon="6.558985">
        <ele>2425.5</ele>
        <time>2019-09-23T13:14:22Z</time>
      </trkpt>
      <trkpt lat="44.987410" lon="6.559073">
        <ele>2425.3</ele>
        <time>2019-09-23T13:14:31Z</time>
      </trkpt>
      <trkpt lat="44.987283" lon="6.559225">
        <ele>2424.5</ele>
        <time>2019-09-23T13:14:47Z</time>
      </trkpt>
      <trkpt lat="44.987212" lon="6.559323">
        <ele>2424.1</ele>
        <time>2019-09-23T13:14:57Z</time>
      </trkpt>
      <trkpt lat="44.986978" lon="6.559263">
        <ele>2423.6</ele>
        <time>2019-09-23T13:15:40Z</time>
      </trkpt>
      <trkpt lat="44.986840" lon="6.559147">
        <ele>2421.6</ele>
        <time>2019-09-23T13:15:55Z</time>
      </trkpt>
      <trkpt lat="44.986772" lon="6.559080">
        <ele>2421.3</ele>
        <time>2019-09-23T13:16:02Z</time>
      </trkpt>
      <trkpt lat="44.986622" lon="6.558967">
        <ele>2420.3</ele>
        <time>2019-09-23T13:16:17Z</time>
      </trkpt>
      <trkpt lat="44.986463" lon="6.558930">
        <ele>2418.6</ele>
        <time>2019-09-23T13:16:31Z</time>
      </trkpt>
      <trkpt lat="44.986305" lon="6.558877">
        <ele>2416.3</ele>
        <time>2019-09-23T13:16:45Z</time>
      </trkpt>
      <trkpt lat="44.986140" lon="6.558928">
        <ele>2414.3</ele>
        <time>2019-09-23T13:17:00Z</time>
      </trkpt>
      <trkpt lat="44.986040" lon="6.558948">
        <ele>2413.8</ele>
        <time>2019-09-23T13:17:09Z</time>
      </trkpt>
      <trkpt lat="44.985893" lon="6.559022">
        <ele>2412.6</ele>
        <time>2019-09-23T13:17:23Z</time>
      </trkpt>
      <trkpt lat="44.985820" lon="6.559092">
        <ele>2412.1</ele>
        <time>2019-09-23T13:17:31Z</time>
      </trkpt>
      <trkpt lat="44.985695" lon="6.559252">
        <ele>2411.3</ele>
        <time>2019-09-23T13:17:45Z</time>
      </trkpt>
      <trkpt lat="44.985568" lon="6.559395">
        <ele>2410.1</ele>
        <time>2019-09-23T13:17:59Z</time>
      </trkpt>
      <trkpt lat="44.985402" lon="6.559412">
        <ele>2410.0</ele>
        <time>2019-09-23T13:18:12Z</time>
      </trkpt>
      <trkpt lat="44.985233" lon="6.559433">
        <ele>2409.6</ele>
        <time>2019-09-23T13:18:27Z</time>
      </trkpt>
      <trkpt lat="44.985062" lon="6.559470">
        <ele>2408.8</ele>
        <time>2019-09-23T13:18:44Z</time>
      </trkpt>
      <trkpt lat="44.984982" lon="6.559473">
        <ele>2408.6</ele>
        <time>2019-09-23T13:18:51Z</time>
      </trkpt>
      <trkpt lat="44.984828" lon="6.559407">
        <ele>2407.8</ele>
        <time>2019-09-23T13:19:06Z</time>
      </trkpt>
      <trkpt lat="44.984745" lon="6.559363">
        <ele>2407.3</ele>
        <time>2019-09-23T13:19:14Z</time>
      </trkpt>
      <trkpt lat="44.984600" lon="6.559255">
        <ele>2407.1</ele>
        <time>2019-09-23T13:19:28Z</time>
      </trkpt>
      <trkpt lat="44.984442" lon="6.559205">
        <ele>2406.3</ele>
        <time>2019-09-23T13:19:41Z</time>
      </trkpt>
      <trkpt lat="44.984277" lon="6.559212">
        <ele>2405.1</ele>
        <time>2019-09-23T13:19:55Z</time>
      </trkpt>
      <trkpt lat="44.984112" lon="6.559168">
        <ele>2404.3</ele>
        <time>2019-09-23T13:20:10Z</time>
      </trkpt>
      <trkpt lat="44.984015" lon="6.559148">
        <ele>2404.0</ele>
        <time>2019-09-23T13:20:19Z</time>
      </trkpt>
      <trkpt lat="44.983775" lon="6.559070">
        <ele>2403.6</ele>
        <time>2019-09-23T13:20:39Z</time>
      </trkpt>
      <trkpt lat="44.983688" lon="6.559052">
        <ele>2403.3</ele>
        <time>2019-09-23T13:20:46Z</time>
      </trkpt>
      <trkpt lat="44.983523" lon="6.559040">
        <ele>2401.8</ele>
        <time>2019-09-23T13:21:00Z</time>
      </trkpt>
      <trkpt lat="44.983360" lon="6.558992">
        <ele>2401.1</ele>
        <time>2019-09-23T13:21:14Z</time>
      </trkpt>
      <trkpt lat="44.983262" lon="6.558977">
        <ele>2400.3</ele>
        <time>2019-09-23T13:21:22Z</time>
      </trkpt>
      <trkpt lat="44.983107" lon="6.558953">
        <ele>2398.8</ele>
        <time>2019-09-23T13:21:35Z</time>
      </trkpt>
      <trkpt lat="44.982933" lon="6.558943">
        <ele>2397.3</ele>
        <time>2019-09-23T13:21:49Z</time>
      </trkpt>
      <trkpt lat="44.982850" lon="6.558943">
        <ele>2396.5</ele>
        <time>2019-09-23T13:21:56Z</time>
      </trkpt>
      <trkpt lat="44.982682" lon="6.558965">
        <ele>2395.1</ele>
        <time>2019-09-23T13:22:10Z</time>
      </trkpt>
      <trkpt lat="44.982500" lon="6.558995">
        <ele>2393.3</ele>
        <time>2019-09-23T13:22:25Z</time>
      </trkpt>
      <trkpt lat="44.982345" lon="6.559040">
        <ele>2392.1</ele>
        <time>2019-09-23T13:22:38Z</time>
      </trkpt>
      <trkpt lat="44.982190" lon="6.559105">
        <ele>2390.6</ele>
        <time>2019-09-23T13:22:52Z</time>
      </trkpt>
      <trkpt lat="44.982113" lon="6.559135">
        <ele>2390.1</ele>
        <time>2019-09-23T13:22:59Z</time>
      </trkpt>
      <trkpt lat="44.981958" lon="6.559215">
        <ele>2389.1</ele>
        <time>2019-09-23T13:23:13Z</time>
      </trkpt>
      <trkpt lat="44.981798" lon="6.559313">
        <ele>2387.3</ele>
        <time>2019-09-23T13:23:28Z</time>
      </trkpt>
      <trkpt lat="44.981575" lon="6.559388">
        <ele>2384.8</ele>
        <time>2019-09-23T13:23:48Z</time>
      </trkpt>
      <trkpt lat="44.981497" lon="6.559400">
        <ele>2384.3</ele>
        <time>2019-09-23T13:23:55Z</time>
      </trkpt>
      <trkpt lat="44.981333" lon="6.559442">
        <ele>2383.1</ele>
        <time>2019-09-23T13:24:09Z</time>
      </trkpt>
      <trkpt lat="44.981170" lon="6.559533">
        <ele>2382.6</ele>
        <time>2019-09-23T13:24:31Z</time>
      </trkpt>
      <trkpt lat="44.980963" lon="6.559698">
        <ele>2380.3</ele>
        <time>2019-09-23T13:24:51Z</time>
      </trkpt>
      <trkpt lat="44.980820" lon="6.559815">
        <ele>2378.8</ele>
        <time>2019-09-23T13:25:05Z</time>
      </trkpt>
      <trkpt lat="44.980670" lon="6.559907">
        <ele>2377.1</ele>
        <time>2019-09-23T13:25:19Z</time>
      </trkpt>
      <trkpt lat="44.980543" lon="6.560053">
        <ele>2375.8</ele>
        <time>2019-09-23T13:25:32Z</time>
      </trkpt>
      <trkpt lat="44.980412" lon="6.560213">
        <ele>2374.5</ele>
        <time>2019-09-23T13:25:46Z</time>
      </trkpt>
      <trkpt lat="44.980257" lon="6.560317">
        <ele>2373.1</ele>
        <time>2019-09-23T13:26:00Z</time>
      </trkpt>
      <trkpt lat="44.980175" lon="6.560347">
        <ele>2372.6</ele>
        <time>2019-09-23T13:26:07Z</time>
      </trkpt>
      <trkpt lat="44.980003" lon="6.560345">
        <ele>2371.6</ele>
        <time>2019-09-23T13:26:21Z</time>
      </trkpt>
      <trkpt lat="44.979922" lon="6.560365">
        <ele>2370.8</ele>
        <time>2019-09-23T13:26:28Z</time>
      </trkpt>
      <trkpt lat="44.979848" lon="6.560460">
        <ele>2370.3</ele>
        <time>2019-09-23T13:26:36Z</time>
      </trkpt>
      <trkpt lat="44.979762" lon="6.560625">
        <ele>2369.3</ele>
        <time>2019-09-23T13:26:47Z</time>
      </trkpt>
      <trkpt lat="44.979623" lon="6.560758">
        <ele>2367.8</ele>
        <time>2019-09-23T13:27:01Z</time>
      </trkpt>
      <trkpt lat="44.979470" lon="6.560823">
        <ele>2366.3</ele>
        <time>2019-09-23T13:27:15Z</time>
      </trkpt>
      <trkpt lat="44.979303" lon="6.560880">
        <ele>2364.6</ele>
        <time>2019-09-23T13:27:30Z</time>
      </trkpt>
      <trkpt lat="44.979208" lon="6.560907">
        <ele>2363.6</ele>
        <time>2019-09-23T13:27:38Z</time>
      </trkpt>
      <trkpt lat="44.979053" lon="6.560935">
        <ele>2362.3</ele>
        <time>2019-09-23T13:27:51Z</time>
      </trkpt>
      <trkpt lat="44.978889" lon="6.560975">
        <ele>2360.8</ele>
        <time>2019-09-23T13:28:05Z</time>
      </trkpt>
      <trkpt lat="44.978718" lon="6.561002">
        <ele>2359.1</ele>
        <time>2019-09-23T13:28:19Z</time>
      </trkpt>
      <trkpt lat="44.978630" lon="6.561025">
        <ele>2358.5</ele>
        <time>2019-09-23T13:28:27Z</time>
      </trkpt>
      <trkpt lat="44.978462" lon="6.561030">
        <ele>2357.1</ele>
        <time>2019-09-23T13:28:41Z</time>
      </trkpt>
      <trkpt lat="44.978298" lon="6.561018">
        <ele>2355.5</ele>
        <time>2019-09-23T13:28:55Z</time>
      </trkpt>
      <trkpt lat="44.978123" lon="6.561033">
        <ele>2353.8</ele>
        <time>2019-09-23T13:29:09Z</time>
      </trkpt>
      <trkpt lat="44.977960" lon="6.560985">
        <ele>2351.8</ele>
        <time>2019-09-23T13:29:23Z</time>
      </trkpt>
      <trkpt lat="44.977793" lon="6.560907">
        <ele>2350.6</ele>
        <time>2019-09-23T13:29:38Z</time>
      </trkpt>
      <trkpt lat="44.977700" lon="6.560853">
        <ele>2350.0</ele>
        <time>2019-09-23T13:29:46Z</time>
      </trkpt>
      <trkpt lat="44.977502" lon="6.560702">
        <ele>2348.3</ele>
        <time>2019-09-23T13:30:05Z</time>
      </trkpt>
      <trkpt lat="44.977418" lon="6.560655">
        <ele>2347.6</ele>
        <time>2019-09-23T13:30:12Z</time>
      </trkpt>
      <trkpt lat="44.977267" lon="6.560565">
        <ele>2346.3</ele>
        <time>2019-09-23T13:30:25Z</time>
      </trkpt>
      <trkpt lat="44.977122" lon="6.560457">
        <ele>2344.6</ele>
        <time>2019-09-23T13:30:38Z</time>
      </trkpt>
      <trkpt lat="44.976945" lon="6.560358">
        <ele>2342.1</ele>
        <time>2019-09-23T13:30:53Z</time>
      </trkpt>
      <trkpt lat="44.976708" lon="6.560305">
        <ele>2338.5</ele>
        <time>2019-09-23T13:31:12Z</time>
      </trkpt>
      <trkpt lat="44.976625" lon="6.560335">
        <ele>2337.6</ele>
        <time>2019-09-23T13:31:19Z</time>
      </trkpt>
      <trkpt lat="44.976497" lon="6.560472">
        <ele>2336.1</ele>
        <time>2019-09-23T13:31:31Z</time>
      </trkpt>
      <trkpt lat="44.976373" lon="6.560630">
        <ele>2334.8</ele>
        <time>2019-09-23T13:31:44Z</time>
      </trkpt>
      <trkpt lat="44.976255" lon="6.560793">
        <ele>2333.8</ele>
        <time>2019-09-23T13:31:58Z</time>
      </trkpt>
      <trkpt lat="44.976132" lon="6.560955">
        <ele>2332.6</ele>
        <time>2019-09-23T13:32:12Z</time>
      </trkpt>
      <trkpt lat="44.976073" lon="6.561047">
        <ele>2331.6</ele>
        <time>2019-09-23T13:32:19Z</time>
      </trkpt>
      <trkpt lat="44.975987" lon="6.561253">
        <ele>2330.3</ele>
        <time>2019-09-23T13:32:33Z</time>
      </trkpt>
      <trkpt lat="44.975892" lon="6.561438">
        <ele>2329.1</ele>
        <time>2019-09-23T13:32:47Z</time>
      </trkpt>
      <trkpt lat="44.975833" lon="6.561517">
        <ele>2328.5</ele>
        <time>2019-09-23T13:32:54Z</time>
      </trkpt>
      <trkpt lat="44.975775" lon="6.561623">
        <ele>2328.0</ele>
        <time>2019-09-23T13:33:02Z</time>
      </trkpt>
      <trkpt lat="44.975658" lon="6.561927">
        <ele>2326.3</ele>
        <time>2019-09-23T13:33:22Z</time>
      </trkpt>
      <trkpt lat="44.975508" lon="6.561997">
        <ele>2325.3</ele>
        <time>2019-09-23T13:33:36Z</time>
      </trkpt>
      <trkpt lat="44.975335" lon="6.562012">
        <ele>2324.1</ele>
        <time>2019-09-23T13:33:50Z</time>
      </trkpt>
      <trkpt lat="44.975173" lon="6.562073">
        <ele>2323.3</ele>
        <time>2019-09-23T13:34:03Z</time>
      </trkpt>
      <trkpt lat="44.975012" lon="6.562170">
        <ele>2322.3</ele>
        <time>2019-09-23T13:34:17Z</time>
      </trkpt>
      <trkpt lat="44.974878" lon="6.562282">
        <ele>2321.3</ele>
        <time>2019-09-23T13:34:29Z</time>
      </trkpt>
      <trkpt lat="44.974733" lon="6.562413">
        <ele>2319.6</ele>
        <time>2019-09-23T13:34:43Z</time>
      </trkpt>
      <trkpt lat="44.974612" lon="6.562575">
        <ele>2319.5</ele>
        <time>2019-09-23T13:35:02Z</time>
      </trkpt>
      <trkpt lat="44.974562" lon="6.562682">
        <ele>2319.5</ele>
        <time>2019-09-23T13:35:09Z</time>
      </trkpt>
      <trkpt lat="44.974453" lon="6.562978">
        <ele>2318.6</ele>
        <time>2019-09-23T13:35:28Z</time>
      </trkpt>
      <trkpt lat="44.974410" lon="6.563080">
        <ele>2318.1</ele>
        <time>2019-09-23T13:35:35Z</time>
      </trkpt>
      <trkpt lat="44.974338" lon="6.563302">
        <ele>2316.8</ele>
        <time>2019-09-23T13:35:49Z</time>
      </trkpt>
      <trkpt lat="44.974273" lon="6.563515">
        <ele>2316.0</ele>
        <time>2019-09-23T13:36:03Z</time>
      </trkpt>
      <trkpt lat="44.974208" lon="6.563618">
        <ele>2316.1</ele>
        <time>2019-09-23T13:36:12Z</time>
      </trkpt>
      <trkpt lat="44.974102" lon="6.563763">
        <ele>2314.5</ele>
        <time>2019-09-23T13:36:24Z</time>
      </trkpt>
      <trkpt lat="44.973990" lon="6.563947">
        <ele>2312.3</ele>
        <time>2019-09-23T13:36:39Z</time>
      </trkpt>
      <trkpt lat="44.973860" lon="6.564088">
        <ele>2310.1</ele>
        <time>2019-09-23T13:36:52Z</time>
      </trkpt>
      <trkpt lat="44.973717" lon="6.564200">
        <ele>2308.6</ele>
        <time>2019-09-23T13:37:05Z</time>
      </trkpt>
      <trkpt lat="44.973640" lon="6.564278">
        <ele>2308.0</ele>
        <time>2019-09-23T13:37:13Z</time>
      </trkpt>
      <trkpt lat="44.973527" lon="6.564425">
        <ele>2306.3</ele>
        <time>2019-09-23T13:37:26Z</time>
      </trkpt>
      <trkpt lat="44.973383" lon="6.564542">
        <ele>2304.8</ele>
        <time>2019-09-23T13:37:40Z</time>
      </trkpt>
      <trkpt lat="44.973225" lon="6.564618">
        <ele>2303.8</ele>
        <time>2019-09-23T13:37:54Z</time>
      </trkpt>
      <trkpt lat="44.973067" lon="6.564718">
        <ele>2302.1</ele>
        <time>2019-09-23T13:38:08Z</time>
      </trkpt>
      <trkpt lat="44.972992" lon="6.564792">
        <ele>2301.0</ele>
        <time>2019-09-23T13:38:16Z</time>
      </trkpt>
      <trkpt lat="44.972813" lon="6.565013">
        <ele>2299.6</ele>
        <time>2019-09-23T13:38:44Z</time>
      </trkpt>
      <trkpt lat="44.972760" lon="6.565100">
        <ele>2298.8</ele>
        <time>2019-09-23T13:38:50Z</time>
      </trkpt>
      <trkpt lat="44.972652" lon="6.565297">
        <ele>2297.5</ele>
        <time>2019-09-23T13:39:04Z</time>
      </trkpt>
      <trkpt lat="44.972540" lon="6.565477">
        <ele>2296.1</ele>
        <time>2019-09-23T13:39:18Z</time>
      </trkpt>
      <trkpt lat="44.972437" lon="6.565670">
        <ele>2294.5</ele>
        <time>2019-09-23T13:39:32Z</time>
      </trkpt>
      <trkpt lat="44.972315" lon="6.565850">
        <ele>2293.0</ele>
        <time>2019-09-23T13:39:47Z</time>
      </trkpt>
      <trkpt lat="44.972187" lon="6.565993">
        <ele>2291.8</ele>
        <time>2019-09-23T13:40:00Z</time>
      </trkpt>
      <trkpt lat="44.972047" lon="6.566127">
        <ele>2290.8</ele>
        <time>2019-09-23T13:40:14Z</time>
      </trkpt>
      <trkpt lat="44.971980" lon="6.566220">
        <ele>2290.3</ele>
        <time>2019-09-23T13:40:22Z</time>
      </trkpt>
      <trkpt lat="44.971870" lon="6.566383">
        <ele>2290.0</ele>
        <time>2019-09-23T13:40:35Z</time>
      </trkpt>
      <trkpt lat="44.971708" lon="6.566457">
        <ele>2289.3</ele>
        <time>2019-09-23T13:40:49Z</time>
      </trkpt>
      <trkpt lat="44.971562" lon="6.566325">
        <ele>2289.1</ele>
        <time>2019-09-23T13:41:05Z</time>
      </trkpt>
      <trkpt lat="44.971435" lon="6.566182">
        <ele>2288.5</ele>
        <time>2019-09-23T13:41:19Z</time>
      </trkpt>
      <trkpt lat="44.971347" lon="6.566133">
        <ele>2287.8</ele>
        <time>2019-09-23T13:41:26Z</time>
      </trkpt>
      <trkpt lat="44.971193" lon="6.566108">
        <ele>2286.1</ele>
        <time>2019-09-23T13:41:37Z</time>
      </trkpt>
      <trkpt lat="44.971117" lon="6.566138">
        <ele>2284.6</ele>
        <time>2019-09-23T13:41:43Z</time>
      </trkpt>
      <trkpt lat="44.970965" lon="6.566233">
        <ele>2282.6</ele>
        <time>2019-09-23T13:41:56Z</time>
      </trkpt>
      <trkpt lat="44.970818" lon="6.566313">
        <ele>2281.1</ele>
        <time>2019-09-23T13:42:09Z</time>
      </trkpt>
      <trkpt lat="44.970742" lon="6.566348">
        <ele>2280.6</ele>
        <time>2019-09-23T13:42:15Z</time>
      </trkpt>
      <trkpt lat="44.970562" lon="6.566412">
        <ele>2279.1</ele>
        <time>2019-09-23T13:42:30Z</time>
      </trkpt>
      <trkpt lat="44.970340" lon="6.566493">
        <ele>2277.3</ele>
        <time>2019-09-23T13:42:48Z</time>
      </trkpt>
      <trkpt lat="44.970255" lon="6.566505">
        <ele>2276.6</ele>
        <time>2019-09-23T13:42:55Z</time>
      </trkpt>
      <trkpt lat="44.970085" lon="6.566572">
        <ele>2274.8</ele>
        <time>2019-09-23T13:43:09Z</time>
      </trkpt>
      <trkpt lat="44.969910" lon="6.566615">
        <ele>2273.6</ele>
        <time>2019-09-23T13:43:23Z</time>
      </trkpt>
      <trkpt lat="44.969740" lon="6.566683">
        <ele>2272.8</ele>
        <time>2019-09-23T13:43:35Z</time>
      </trkpt>
      <trkpt lat="44.969582" lon="6.566787">
        <ele>2272.6</ele>
        <time>2019-09-23T13:43:47Z</time>
      </trkpt>
      <trkpt lat="44.969440" lon="6.566902">
        <ele>2271.3</ele>
        <time>2019-09-23T13:43:58Z</time>
      </trkpt>
      <trkpt lat="44.969307" lon="6.567033">
        <ele>2270.6</ele>
        <time>2019-09-23T13:44:10Z</time>
      </trkpt>
      <trkpt lat="44.969190" lon="6.567195">
        <ele>2269.6</ele>
        <time>2019-09-23T13:44:22Z</time>
      </trkpt>
      <trkpt lat="44.969062" lon="6.567352">
        <ele>2267.8</ele>
        <time>2019-09-23T13:44:34Z</time>
      </trkpt>
      <trkpt lat="44.969008" lon="6.567435">
        <ele>2267.5</ele>
        <time>2019-09-23T13:44:44Z</time>
      </trkpt>
      <trkpt lat="44.968912" lon="6.567618">
        <ele>2266.6</ele>
        <time>2019-09-23T13:44:57Z</time>
      </trkpt>
      <trkpt lat="44.968778" lon="6.567780">
        <ele>2266.3</ele>
        <time>2019-09-23T13:45:11Z</time>
      </trkpt>
      <trkpt lat="44.968655" lon="6.567920">
        <ele>2265.8</ele>
        <time>2019-09-23T13:45:23Z</time>
      </trkpt>
      <trkpt lat="44.968592" lon="6.568005">
        <ele>2265.8</ele>
        <time>2019-09-23T13:45:29Z</time>
      </trkpt>
      <trkpt lat="44.968510" lon="6.568208">
        <ele>2265.6</ele>
        <time>2019-09-23T13:45:41Z</time>
      </trkpt>
      <trkpt lat="44.968453" lon="6.568313">
        <ele>2264.8</ele>
        <time>2019-09-23T13:45:48Z</time>
      </trkpt>
      <trkpt lat="44.968335" lon="6.568435">
        <ele>2264.1</ele>
        <time>2019-09-23T13:46:01Z</time>
      </trkpt>
      <trkpt lat="44.968187" lon="6.568522">
        <ele>2262.3</ele>
        <time>2019-09-23T13:46:13Z</time>
      </trkpt>
      <trkpt lat="44.968045" lon="6.568655">
        <ele>2260.6</ele>
        <time>2019-09-23T13:46:25Z</time>
      </trkpt>
      <trkpt lat="44.967935" lon="6.568837">
        <ele>2260.6</ele>
        <time>2019-09-23T13:46:38Z</time>
      </trkpt>
      <trkpt lat="44.967838" lon="6.569025">
        <ele>2259.8</ele>
        <time>2019-09-23T13:46:50Z</time>
      </trkpt>
      <trkpt lat="44.967750" lon="6.569217">
        <ele>2259.0</ele>
        <time>2019-09-23T13:47:02Z</time>
      </trkpt>
      <trkpt lat="44.967713" lon="6.569323">
        <ele>2258.3</ele>
        <time>2019-09-23T13:47:08Z</time>
      </trkpt>
      <trkpt lat="44.967683" lon="6.569548">
        <ele>2258.1</ele>
        <time>2019-09-23T13:47:26Z</time>
      </trkpt>
      <trkpt lat="44.967633" lon="6.569768">
        <ele>2257.6</ele>
        <time>2019-09-23T13:47:38Z</time>
      </trkpt>
      <trkpt lat="44.967555" lon="6.569978">
        <ele>2256.3</ele>
        <time>2019-09-23T13:47:50Z</time>
      </trkpt>
      <trkpt lat="44.967515" lon="6.570097">
        <ele>2255.1</ele>
        <time>2019-09-23T13:47:57Z</time>
      </trkpt>
      <trkpt lat="44.967420" lon="6.570390">
        <ele>2253.3</ele>
        <time>2019-09-23T13:48:14Z</time>
      </trkpt>
      <trkpt lat="44.967348" lon="6.570590">
        <ele>2251.5</ele>
        <time>2019-09-23T13:48:26Z</time>
      </trkpt>
      <trkpt lat="44.967260" lon="6.570800">
        <ele>2251.1</ele>
        <time>2019-09-23T13:48:39Z</time>
      </trkpt>
      <trkpt lat="44.967210" lon="6.571035">
        <ele>2249.6</ele>
        <time>2019-09-23T13:48:53Z</time>
      </trkpt>
      <trkpt lat="44.967183" lon="6.571173">
        <ele>2249.1</ele>
        <time>2019-09-23T13:49:01Z</time>
      </trkpt>
      <trkpt lat="44.967058" lon="6.571462">
        <ele>2246.6</ele>
        <time>2019-09-23T13:49:19Z</time>
      </trkpt>
      <trkpt lat="44.967013" lon="6.571570">
        <ele>2245.6</ele>
        <time>2019-09-23T13:49:27Z</time>
      </trkpt>
      <trkpt lat="44.966907" lon="6.571762">
        <ele>2243.1</ele>
        <time>2019-09-23T13:49:41Z</time>
      </trkpt>
      <trkpt lat="44.966797" lon="6.571940">
        <ele>2242.1</ele>
        <time>2019-09-23T13:49:54Z</time>
      </trkpt>
      <trkpt lat="44.966692" lon="6.572098">
        <ele>2241.0</ele>
        <time>2019-09-23T13:50:05Z</time>
      </trkpt>
      <trkpt lat="44.966567" lon="6.572253">
        <ele>2240.6</ele>
        <time>2019-09-23T13:50:18Z</time>
      </trkpt>
      <trkpt lat="44.966452" lon="6.572422">
        <ele>2240.6</ele>
        <time>2019-09-23T13:50:32Z</time>
      </trkpt>
      <trkpt lat="44.966372" lon="6.572617">
        <ele>2241.3</ele>
        <time>2019-09-23T13:50:44Z</time>
      </trkpt>
      <trkpt lat="44.966308" lon="6.572822">
        <ele>2242.5</ele>
        <time>2019-09-23T13:50:56Z</time>
      </trkpt>
      <trkpt lat="44.966258" lon="6.572927">
        <ele>2242.6</ele>
        <time>2019-09-23T13:51:03Z</time>
      </trkpt>
      <trkpt lat="44.966190" lon="6.573032">
        <ele>2242.6</ele>
        <time>2019-09-23T13:51:11Z</time>
      </trkpt>
      <trkpt lat="44.966092" lon="6.573210">
        <ele>2242.6</ele>
        <time>2019-09-23T13:51:24Z</time>
      </trkpt>
      <trkpt lat="44.965980" lon="6.573382">
        <ele>2242.8</ele>
        <time>2019-09-23T13:51:38Z</time>
      </trkpt>
      <trkpt lat="44.965852" lon="6.573545">
        <ele>2243.1</ele>
        <time>2019-09-23T13:51:52Z</time>
      </trkpt>
      <trkpt lat="44.965700" lon="6.573643">
        <ele>2243.8</ele>
        <time>2019-09-23T13:52:05Z</time>
      </trkpt>
      <trkpt lat="44.965623" lon="6.573672">
        <ele>2243.8</ele>
        <time>2019-09-23T13:52:12Z</time>
      </trkpt>
      <trkpt lat="44.965462" lon="6.573705">
        <ele>2244.3</ele>
        <time>2019-09-23T13:52:25Z</time>
      </trkpt>
      <trkpt lat="44.965303" lon="6.573722">
        <ele>2244.0</ele>
        <time>2019-09-23T13:52:37Z</time>
      </trkpt>
      <trkpt lat="44.965138" lon="6.573745">
        <ele>2244.1</ele>
        <time>2019-09-23T13:52:50Z</time>
      </trkpt>
      <trkpt lat="44.964962" lon="6.573765">
        <ele>2243.8</ele>
        <time>2019-09-23T13:53:04Z</time>
      </trkpt>
      <trkpt lat="44.964792" lon="6.573738">
        <ele>2243.1</ele>
        <time>2019-09-23T13:53:17Z</time>
      </trkpt>
      <trkpt lat="44.964645" lon="6.573707">
        <ele>2242.3</ele>
        <time>2019-09-23T13:53:28Z</time>
      </trkpt>
      <trkpt lat="44.964563" lon="6.573718">
        <ele>2241.8</ele>
        <time>2019-09-23T13:53:34Z</time>
      </trkpt>
      <trkpt lat="44.964402" lon="6.573768">
        <ele>2240.6</ele>
        <time>2019-09-23T13:53:45Z</time>
      </trkpt>
      <trkpt lat="44.964323" lon="6.573812">
        <ele>2240.3</ele>
        <time>2019-09-23T13:53:51Z</time>
      </trkpt>
      <trkpt lat="44.964170" lon="6.573918">
        <ele>2239.5</ele>
        <time>2019-09-23T13:54:05Z</time>
      </trkpt>
      <trkpt lat="44.964007" lon="6.574020">
        <ele>2238.5</ele>
        <time>2019-09-23T13:54:20Z</time>
      </trkpt>
      <trkpt lat="44.963850" lon="6.574118">
        <ele>2237.1</ele>
        <time>2019-09-23T13:54:32Z</time>
      </trkpt>
      <trkpt lat="44.963728" lon="6.574282">
        <ele>2235.8</ele>
        <time>2019-09-23T13:54:45Z</time>
      </trkpt>
      <trkpt lat="44.963662" lon="6.574367">
        <ele>2234.5</ele>
        <time>2019-09-23T13:54:51Z</time>
      </trkpt>
      <trkpt lat="44.963535" lon="6.574512">
        <ele>2232.1</ele>
        <time>2019-09-23T13:55:03Z</time>
      </trkpt>
      <trkpt lat="44.963397" lon="6.574645">
        <ele>2229.5</ele>
        <time>2019-09-23T13:55:16Z</time>
      </trkpt>
      <trkpt lat="44.963320" lon="6.574732">
        <ele>2227.6</ele>
        <time>2019-09-23T13:55:24Z</time>
      </trkpt>
      <trkpt lat="44.963142" lon="6.574942">
        <ele>2224.8</ele>
        <time>2019-09-23T13:55:43Z</time>
      </trkpt>
      <trkpt lat="44.963077" lon="6.575013">
        <ele>2223.8</ele>
        <time>2019-09-23T13:55:49Z</time>
      </trkpt>
      <trkpt lat="44.962953" lon="6.575163">
        <ele>2222.3</ele>
        <time>2019-09-23T13:56:03Z</time>
      </trkpt>
      <trkpt lat="44.962825" lon="6.575313">
        <ele>2220.8</ele>
        <time>2019-09-23T13:56:17Z</time>
      </trkpt>
      <trkpt lat="44.962757" lon="6.575415">
        <ele>2219.8</ele>
        <time>2019-09-23T13:56:25Z</time>
      </trkpt>
      <trkpt lat="44.962642" lon="6.575578">
        <ele>2219.3</ele>
        <time>2019-09-23T13:56:38Z</time>
      </trkpt>
      <trkpt lat="44.962652" lon="6.575697">
        <ele>2218.0</ele>
        <time>2019-09-23T13:56:44Z</time>
      </trkpt>
      <trkpt lat="44.962747" lon="6.575902">
        <ele>2216.1</ele>
        <time>2019-09-23T13:56:55Z</time>
      </trkpt>
      <trkpt lat="44.962858" lon="6.576078">
        <ele>2214.6</ele>
        <time>2019-09-23T13:57:08Z</time>
      </trkpt>
      <trkpt lat="44.962938" lon="6.576273">
        <ele>2212.3</ele>
        <time>2019-09-23T13:57:21Z</time>
      </trkpt>
      <trkpt lat="44.962958" lon="6.576402">
        <ele>2210.8</ele>
        <time>2019-09-23T13:57:29Z</time>
      </trkpt>
      <trkpt lat="44.962985" lon="6.576610">
        <ele>2208.5</ele>
        <time>2019-09-23T13:57:42Z</time>
      </trkpt>
      <trkpt lat="44.963037" lon="6.576845">
        <ele>2206.5</ele>
        <time>2019-09-23T13:57:56Z</time>
      </trkpt>
      <trkpt lat="44.963067" lon="6.576952">
        <ele>2205.6</ele>
        <time>2019-09-23T13:58:03Z</time>
      </trkpt>
      <trkpt lat="44.963137" lon="6.577168">
        <ele>2203.8</ele>
        <time>2019-09-23T13:58:16Z</time>
      </trkpt>
      <trkpt lat="44.963135" lon="6.577287">
        <ele>2203.1</ele>
        <time>2019-09-23T13:58:23Z</time>
      </trkpt>
      <trkpt lat="44.963110" lon="6.577422">
        <ele>2202.1</ele>
        <time>2019-09-23T13:58:31Z</time>
      </trkpt>
      <trkpt lat="44.963143" lon="6.577628">
        <ele>2201.5</ele>
        <time>2019-09-23T13:58:43Z</time>
      </trkpt>
      <trkpt lat="44.963238" lon="6.577825">
        <ele>2200.8</ele>
        <time>2019-09-23T13:58:55Z</time>
      </trkpt>
      <trkpt lat="44.963328" lon="6.578000">
        <ele>2199.8</ele>
        <time>2019-09-23T13:59:08Z</time>
      </trkpt>
      <trkpt lat="44.963378" lon="6.578103">
        <ele>2198.8</ele>
        <time>2019-09-23T13:59:15Z</time>
      </trkpt>
      <trkpt lat="44.963488" lon="6.578297">
        <ele>2197.0</ele>
        <time>2019-09-23T13:59:29Z</time>
      </trkpt>
      <trkpt lat="44.963550" lon="6.578412">
        <ele>2196.0</ele>
        <time>2019-09-23T13:59:37Z</time>
      </trkpt>
      <trkpt lat="44.963635" lon="6.578592">
        <ele>2194.8</ele>
        <time>2019-09-23T13:59:49Z</time>
      </trkpt>
      <trkpt lat="44.963745" lon="6.578767">
        <ele>2194.8</ele>
        <time>2019-09-23T14:00:02Z</time>
      </trkpt>
      <trkpt lat="44.963870" lon="6.578902">
        <ele>2194.1</ele>
        <time>2019-09-23T14:00:14Z</time>
      </trkpt>
      <trkpt lat="44.964012" lon="6.579025">
        <ele>2193.6</ele>
        <time>2019-09-23T14:00:27Z</time>
      </trkpt>
      <trkpt lat="44.964128" lon="6.579208">
        <ele>2192.5</ele>
        <time>2019-09-23T14:00:42Z</time>
      </trkpt>
      <trkpt lat="44.964167" lon="6.579433">
        <ele>2189.6</ele>
        <time>2019-09-23T14:00:57Z</time>
      </trkpt>
      <trkpt lat="44.964160" lon="6.579670">
        <ele>2188.1</ele>
        <time>2019-09-23T14:01:11Z</time>
      </trkpt>
      <trkpt lat="44.964127" lon="6.579783">
        <ele>2187.3</ele>
        <time>2019-09-23T14:01:18Z</time>
      </trkpt>
      <trkpt lat="44.964050" lon="6.580002">
        <ele>2186.3</ele>
        <time>2019-09-23T14:01:32Z</time>
      </trkpt>
      <trkpt lat="44.963998" lon="6.580227">
        <ele>2185.0</ele>
        <time>2019-09-23T14:01:45Z</time>
      </trkpt>
      <trkpt lat="44.963960" lon="6.580455">
        <ele>2183.8</ele>
        <time>2019-09-23T14:01:58Z</time>
      </trkpt>
      <trkpt lat="44.963972" lon="6.580683">
        <ele>2181.5</ele>
        <time>2019-09-23T14:02:10Z</time>
      </trkpt>
      <trkpt lat="44.964033" lon="6.580893">
        <ele>2180.3</ele>
        <time>2019-09-23T14:02:22Z</time>
      </trkpt>
      <trkpt lat="44.964097" lon="6.580973">
        <ele>2180.1</ele>
        <time>2019-09-23T14:02:28Z</time>
      </trkpt>
      <trkpt lat="44.964238" lon="6.581088">
        <ele>2179.1</ele>
        <time>2019-09-23T14:02:39Z</time>
      </trkpt>
      <trkpt lat="44.964387" lon="6.581230">
        <ele>2177.1</ele>
        <time>2019-09-23T14:02:52Z</time>
      </trkpt>
      <trkpt lat="44.964508" lon="6.581362">
        <ele>2175.0</ele>
        <time>2019-09-23T14:03:03Z</time>
      </trkpt>
      <trkpt lat="44.964645" lon="6.581488">
        <ele>2173.3</ele>
        <time>2019-09-23T14:03:16Z</time>
      </trkpt>
      <trkpt lat="44.964723" lon="6.581527">
        <ele>2172.8</ele>
        <time>2019-09-23T14:03:23Z</time>
      </trkpt>
      <trkpt lat="44.964883" lon="6.581585">
        <ele>2171.6</ele>
        <time>2019-09-23T14:03:35Z</time>
      </trkpt>
      <trkpt lat="44.965032" lon="6.581663">
        <ele>2170.3</ele>
        <time>2019-09-23T14:03:47Z</time>
      </trkpt>
      <trkpt lat="44.965110" lon="6.581738">
        <ele>2169.3</ele>
        <time>2019-09-23T14:03:54Z</time>
      </trkpt>
      <trkpt lat="44.965212" lon="6.581900">
        <ele>2168.1</ele>
        <time>2019-09-23T14:04:06Z</time>
      </trkpt>
      <trkpt lat="44.965335" lon="6.582058">
        <ele>2167.1</ele>
        <time>2019-09-23T14:04:19Z</time>
      </trkpt>
      <trkpt lat="44.965400" lon="6.582127">
        <ele>2166.6</ele>
        <time>2019-09-23T14:04:25Z</time>
      </trkpt>
      <trkpt lat="44.965538" lon="6.582238">
        <ele>2165.5</ele>
        <time>2019-09-23T14:04:37Z</time>
      </trkpt>
      <trkpt lat="44.965612" lon="6.582310">
        <ele>2164.8</ele>
        <time>2019-09-23T14:04:44Z</time>
      </trkpt>
      <trkpt lat="44.965767" lon="6.582430">
        <ele>2163.8</ele>
        <time>2019-09-23T14:04:58Z</time>
      </trkpt>
      <trkpt lat="44.965922" lon="6.582523">
        <ele>2163.1</ele>
        <time>2019-09-23T14:05:12Z</time>
      </trkpt>
      <trkpt lat="44.966057" lon="6.582640">
        <ele>2162.8</ele>
        <time>2019-09-23T14:05:24Z</time>
      </trkpt>
      <trkpt lat="44.966128" lon="6.582687">
        <ele>2162.6</ele>
        <time>2019-09-23T14:05:30Z</time>
      </trkpt>
      <trkpt lat="44.966267" lon="6.582820">
        <ele>2162.1</ele>
        <time>2019-09-23T14:05:43Z</time>
      </trkpt>
      <trkpt lat="44.966393" lon="6.582943">
        <ele>2163.1</ele>
        <time>2019-09-23T14:05:55Z</time>
      </trkpt>
      <trkpt lat="44.966477" lon="6.583027">
        <ele>2164.1</ele>
        <time>2019-09-23T14:06:03Z</time>
      </trkpt>
      <trkpt lat="44.966667" lon="6.583240">
        <ele>2165.8</ele>
        <time>2019-09-23T14:06:23Z</time>
      </trkpt>
      <trkpt lat="44.966800" lon="6.583385">
        <ele>2167.6</ele>
        <time>2019-09-23T14:06:37Z</time>
      </trkpt>
      <trkpt lat="44.966877" lon="6.583437">
        <ele>2168.1</ele>
        <time>2019-09-23T14:06:44Z</time>
      </trkpt>
      <trkpt lat="44.967035" lon="6.583520">
        <ele>2168.3</ele>
        <time>2019-09-23T14:06:57Z</time>
      </trkpt>
      <trkpt lat="44.967127" lon="6.583573">
        <ele>2168.6</ele>
        <time>2019-09-23T14:07:05Z</time>
      </trkpt>
      <trkpt lat="44.967282" lon="6.583630">
        <ele>2168.6</ele>
        <time>2019-09-23T14:07:18Z</time>
      </trkpt>
      <trkpt lat="44.967440" lon="6.583715">
        <ele>2169.6</ele>
        <time>2019-09-23T14:07:32Z</time>
      </trkpt>
      <trkpt lat="44.967602" lon="6.583695">
        <ele>2170.3</ele>
        <time>2019-09-23T14:07:45Z</time>
      </trkpt>
      <trkpt lat="44.967767" lon="6.583680">
        <ele>2171.6</ele>
        <time>2019-09-23T14:07:59Z</time>
      </trkpt>
      <trkpt lat="44.967853" lon="6.583733">
        <ele>2172.5</ele>
        <time>2019-09-23T14:08:07Z</time>
      </trkpt>
      <trkpt lat="44.968060" lon="6.583913">
        <ele>2174.5</ele>
        <time>2019-09-23T14:08:29Z</time>
      </trkpt>
      <trkpt lat="44.968123" lon="6.583992">
        <ele>2175.3</ele>
        <time>2019-09-23T14:08:37Z</time>
      </trkpt>
      <trkpt lat="44.968172" lon="6.584039">
        <ele>2185.8</ele>
        <time>2019-09-23T14:14:54Z</time>
      </trkpt>
    </trkseg>
  </trk>
</gpx>
